createdAt,value
2018-03-29T00:01:30.328Z,99477.82
2018-03-29T00:03:57.958Z,99477.34
2018-03-29T00:06:25.553Z,99471.70
2018-03-29T00:08:53.155Z,99472.55
2018-03-29T00:11:20.792Z,99479.20
2018-03-29T00:13:48.426Z,99482.20
2018-03-29T00:16:16.025Z,99484.41
2018-03-29T00:18:43.668Z,99479.21
2018-03-29T00:21:11.247Z,99484.94
2018-03-29T00:23:38.851Z,99485.45
2018-03-29T00:26:06.485Z,99497.47
2018-03-29T00:28:34.086Z,99500.63
2018-03-29T00:31:01.936Z,99500.30
2018-03-29T00:33:29.606Z,99501.61
2018-03-29T00:35:57.207Z,99497.23
2018-03-29T00:38:24.820Z,99493.72
2018-03-29T00:40:52.458Z,99502.12
2018-03-29T00:43:20.070Z,99509.70
2018-03-29T00:45:47.675Z,99513.60
2018-03-29T00:48:15.314Z,99514.45
2018-03-29T00:50:42.918Z,99520.69
2018-03-29T00:53:22.346Z,99527.47
2018-03-29T00:55:49.948Z,99521.95
2018-03-29T00:58:17.546Z,99512.74
2018-03-29T01:00:45.194Z,99516.20
2018-03-29T01:03:12.800Z,99519.27
2018-03-29T01:05:40.402Z,99517.61
2018-03-29T01:08:08.058Z,99512.25
2018-03-29T01:10:35.765Z,99510.95
2018-03-29T01:13:03.362Z,99506.98
2018-03-29T01:15:31.010Z,99506.23
2018-03-29T01:17:58.623Z,99494.52
2018-03-29T01:20:26.225Z,99491.97
2018-03-29T01:22:53.862Z,99491.20
2018-03-29T01:25:21.466Z,99496.34
2018-03-29T01:27:49.061Z,99489.25
2018-03-29T01:30:16.704Z,99487.00
2018-03-29T01:32:44.307Z,99474.45
2018-03-29T01:35:11.903Z,99468.11
2018-03-29T01:37:39.542Z,99468.84
2018-03-29T01:40:07.142Z,99469.66
2018-03-29T01:42:34.761Z,99473.69
2018-03-29T01:45:02.391Z,99470.14
2018-03-29T01:47:30.003Z,99457.63
2018-03-29T01:49:57.597Z,99449.16
2018-03-29T01:52:25.232Z,99444.97
2018-03-29T01:54:52.827Z,99439.69
2018-03-29T01:57:20.425Z,99436.77
2018-03-29T01:59:48.053Z,99443.95
2018-03-29T02:02:15.647Z,99439.93
2018-03-29T02:04:43.243Z,99447.61
2018-03-29T02:07:10.877Z,99447.80
2018-03-29T02:09:38.489Z,99443.69
2018-03-29T02:12:06.087Z,99441.53
2018-03-29T02:14:33.718Z,99441.46
2018-03-29T02:17:01.322Z,99444.26
2018-03-29T02:19:28.917Z,99445.17
2018-03-29T02:21:56.578Z,99457.55
2018-03-29T02:24:24.200Z,99464.53
2018-03-29T02:26:51.794Z,99465.28
2018-03-29T02:29:19.538Z,99464.41
2018-03-29T02:31:47.132Z,99463.91
2018-03-29T02:34:14.741Z,99465.41
2018-03-29T02:36:42.379Z,99466.55
2018-03-29T02:39:09.976Z,99474.31
2018-03-29T02:41:37.605Z,99470.78
2018-03-29T02:44:05.243Z,99472.51
2018-03-29T02:46:32.852Z,99469.47
2018-03-29T02:49:00.456Z,99471.39
2018-03-29T02:51:28.134Z,99476.75
2018-03-29T02:53:55.731Z,99475.27
2018-03-29T02:56:23.331Z,99475.77
2018-03-29T02:58:50.963Z,99487.96
2018-03-29T03:01:18.558Z,99489.92
2018-03-29T03:03:46.163Z,99491.97
2018-03-29T03:06:13.799Z,99500.13
2018-03-29T03:08:41.396Z,99497.80
2018-03-29T03:11:08.998Z,99501.67
2018-03-29T03:13:36.706Z,99496.56
2018-03-29T03:16:04.369Z,99493.11
2018-03-29T03:18:31.966Z,99486.05
2018-03-29T03:20:59.592Z,99488.99
2018-03-29T03:23:27.193Z,99488.23
2018-03-29T03:25:54.795Z,99497.47
2018-03-29T03:28:22.458Z,99495.63
2018-03-29T03:30:50.091Z,99504.61
2018-03-29T03:33:17.684Z,99511.45
2018-03-29T03:35:45.315Z,99507.45
2018-03-29T03:38:12.905Z,99508.23
2018-03-29T03:40:40.508Z,99511.86
2018-03-29T03:43:08.149Z,99510.95
2018-03-29T03:45:35.744Z,99508.67
2018-03-29T03:48:03.345Z,99497.52
2018-03-29T03:50:30.987Z,99513.41
2018-03-29T03:52:58.584Z,99511.86
2018-03-29T03:55:26.176Z,99516.25
2018-03-29T03:57:53.800Z,99520.70
2018-03-29T04:00:21.392Z,99525.80
2018-03-29T04:02:48.989Z,99526.55
2018-03-29T04:05:16.620Z,99516.53
2018-03-29T04:07:44.221Z,99513.84
2018-03-29T04:10:11.825Z,99517.64
2018-03-29T04:12:39.454Z,99521.47
2018-03-29T04:15:07.041Z,99523.78
2018-03-29T04:17:34.638Z,99516.70
2018-03-29T04:20:02.275Z,99517.03
2018-03-29T04:22:29.874Z,99519.83
2018-03-29T04:24:57.473Z,99519.36
2018-03-29T04:27:25.113Z,99523.86
2018-03-29T04:29:52.712Z,99525.34
2018-03-29T04:32:20.320Z,99524.78
2018-03-29T04:34:47.946Z,99532.81
2018-03-29T04:37:15.540Z,99530.30
2018-03-29T04:39:43.148Z,99535.64
2018-03-29T04:42:10.784Z,99539.55
2018-03-29T04:44:38.393Z,99542.66
2018-03-29T04:47:06.023Z,99539.07
2018-03-29T04:49:33.664Z,99545.57
2018-03-29T04:52:01.279Z,99544.59
2018-03-29T04:54:28.888Z,99543.84
2018-03-29T04:56:56.543Z,99543.00
2018-03-29T04:59:24.124Z,99546.14
2018-03-29T05:01:51.724Z,99551.45
2018-03-29T05:04:19.366Z,99551.03
2018-03-29T05:06:46.955Z,99559.83
2018-03-29T05:09:14.549Z,99562.09
2018-03-29T05:11:42.191Z,99560.57
2018-03-29T05:14:09.786Z,99567.41
2018-03-29T05:16:37.667Z,99569.25
2018-03-29T05:19:05.307Z,99577.09
2018-03-29T05:21:32.912Z,99571.19
2018-03-29T05:24:00.499Z,99574.64
2018-03-29T05:26:28.145Z,99571.61
2018-03-29T05:28:55.776Z,99580.78
2018-03-29T05:31:23.374Z,99578.98
2018-03-29T05:33:51.013Z,99584.97
2018-03-29T05:36:18.607Z,99588.61
2018-03-29T05:38:46.207Z,99582.41
2018-03-29T05:41:13.834Z,99576.53
2018-03-29T05:43:41.436Z,99576.52
2018-03-29T05:46:09.025Z,99578.50
2018-03-29T05:48:36.719Z,99577.94
2018-03-29T05:51:04.321Z,99582.92
2018-03-29T05:53:31.910Z,99577.16
2018-03-29T05:55:59.554Z,99570.81
2018-03-29T05:58:27.156Z,99569.69
2018-03-29T06:00:54.751Z,99573.13
2018-03-29T06:03:22.392Z,99571.91
2018-03-29T06:05:50.009Z,99572.08
2018-03-29T06:08:17.627Z,99576.24
2018-03-29T06:10:45.266Z,99573.06
2018-03-29T06:13:12.875Z,99580.08
2018-03-29T06:15:40.474Z,99580.25
2018-03-29T06:18:08.150Z,99584.48
2018-03-29T06:20:35.748Z,99584.67
2018-03-29T06:23:03.344Z,99593.98
2018-03-29T06:25:30.976Z,99590.69
2018-03-29T06:27:58.571Z,99588.77
2018-03-29T06:30:26.163Z,99595.86
2018-03-29T06:32:53.805Z,99599.24
2018-03-29T06:35:21.414Z,99598.11
2018-03-29T06:37:49.010Z,99595.59
2018-03-29T06:40:16.642Z,99596.69
2018-03-29T06:42:44.240Z,99597.63
2018-03-29T06:45:11.839Z,99598.97
2018-03-29T06:47:39.485Z,99597.49
2018-03-29T06:50:07.077Z,99597.48
2018-03-29T06:52:34.672Z,99598.34
2018-03-29T06:55:02.312Z,99595.09
2018-03-29T06:57:29.903Z,99605.01
2018-03-29T06:59:57.500Z,99613.39
2018-03-29T07:02:25.134Z,99610.42
2018-03-29T07:04:52.731Z,99607.39
2018-03-29T07:07:20.323Z,99599.45
2018-03-29T07:09:47.964Z,99618.88
2018-03-29T07:12:15.562Z,99626.14
2018-03-29T07:14:43.164Z,99627.67
2018-03-29T07:17:10.803Z,99627.17
2018-03-29T07:19:38.403Z,99623.74
2018-03-29T07:22:06.004Z,99620.76
2018-03-29T07:24:33.661Z,99631.44
2018-03-29T07:27:01.243Z,99622.67
2018-03-29T07:29:28.825Z,99629.20
2018-03-29T07:31:56.463Z,99621.44
2018-03-29T07:34:24.054Z,99619.41
2018-03-29T07:36:51.646Z,99630.70
2018-03-29T07:39:19.270Z,99632.72
2018-03-29T07:41:46.866Z,99630.11
2018-03-29T07:44:14.502Z,99640.31
2018-03-29T07:46:42.130Z,99632.02
2018-03-29T07:49:09.714Z,99626.53
2018-03-29T07:51:37.302Z,99633.36
2018-03-29T07:54:04.928Z,99638.09
2018-03-29T07:56:32.513Z,99639.89
2018-03-29T07:59:00.113Z,99651.70
2018-03-29T08:01:27.755Z,99650.86
2018-03-29T08:03:55.353Z,99649.30
2018-03-29T08:06:22.945Z,99647.70
2018-03-29T08:08:50.597Z,99651.89
2018-03-29T08:11:18.237Z,99653.64
2018-03-29T08:13:45.868Z,99651.70
2018-03-29T08:16:13.513Z,99647.22
2018-03-29T08:18:41.112Z,99647.61
2018-03-29T08:21:08.701Z,99636.22
2018-03-29T08:23:36.355Z,99649.23
2018-03-29T08:26:03.953Z,99642.45
2018-03-29T08:28:31.545Z,99639.64
2018-03-29T08:31:20.715Z,99647.11
2018-03-29T08:33:48.332Z,99644.23
2018-03-29T08:36:15.934Z,99638.02
2018-03-29T08:38:43.566Z,99633.41
2018-03-29T08:41:11.158Z,99633.90
2018-03-29T08:43:38.754Z,99636.36
2018-03-29T08:46:06.387Z,99637.91
2018-03-29T08:48:33.978Z,99628.81
2018-03-29T08:51:01.581Z,99624.84
2018-03-29T08:53:29.263Z,99629.76
2018-03-29T08:55:56.849Z,99627.03
2018-03-29T08:58:24.446Z,99627.93
2018-03-29T09:00:52.082Z,99616.24
2018-03-29T09:03:19.680Z,99622.83
2018-03-29T09:05:47.276Z,99619.08
2018-03-29T09:08:14.910Z,99618.92
2018-03-29T09:10:42.500Z,99617.66
2018-03-29T09:13:10.099Z,99614.94
2018-03-29T09:15:37.726Z,99622.45
2018-03-29T09:18:05.379Z,99629.42
2018-03-29T09:20:32.981Z,99624.78
2018-03-29T09:23:00.622Z,99632.13
2018-03-29T09:25:28.251Z,99630.58
2018-03-29T09:27:55.856Z,99637.52
2018-03-29T09:30:23.486Z,99641.20
2018-03-29T09:32:51.086Z,99635.13
2018-03-29T09:35:18.680Z,99638.48
2018-03-29T09:37:46.310Z,99634.19
2018-03-29T09:40:13.918Z,99634.87
2018-03-29T09:42:41.519Z,99633.67
2018-03-29T09:45:09.286Z,99632.33
2018-03-29T09:47:36.887Z,99634.81
2018-03-29T09:50:04.484Z,99640.97
2018-03-29T09:52:32.114Z,99638.26
2018-03-29T09:54:59.700Z,99637.66
2018-03-29T09:57:27.293Z,99642.48
2018-03-29T09:59:54.906Z,99638.56
2018-03-29T10:02:22.543Z,99632.45
2018-03-29T10:04:55.660Z,99624.97
2018-03-29T10:07:39.819Z,99618.22
2018-03-29T10:10:07.446Z,99618.75
2018-03-29T10:12:35.060Z,99614.75
2018-03-29T10:15:02.639Z,99626.49
2018-03-29T10:17:30.264Z,99617.47
2018-03-29T10:19:57.860Z,99613.48
2018-03-29T10:22:25.448Z,99614.98
2018-03-29T10:24:53.110Z,99614.88
2018-03-29T10:27:20.698Z,99616.05
2018-03-29T10:29:49.194Z,99623.05
2018-03-29T10:32:16.813Z,99624.38
2018-03-29T10:34:44.417Z,99621.75
2018-03-29T10:37:12.007Z,99622.05
2018-03-29T10:39:39.620Z,99635.98
2018-03-29T10:42:07.215Z,99635.11
2018-03-29T10:44:34.811Z,99638.28
2018-03-29T10:47:02.446Z,99636.88
2018-03-29T10:49:30.060Z,99631.79
2018-03-29T10:51:57.644Z,99625.52
2018-03-29T10:54:25.270Z,99632.02
2018-03-29T10:56:52.855Z,99621.77
2018-03-29T10:59:20.419Z,99618.17
2018-03-29T11:01:48.067Z,99616.55
2018-03-29T11:04:15.653Z,99611.84
2018-03-29T11:06:43.235Z,99601.69
2018-03-29T11:09:10.862Z,99598.53
2018-03-29T11:11:38.446Z,99596.95
2018-03-29T11:14:06.049Z,99593.61
2018-03-29T11:16:33.665Z,99602.07
2018-03-29T11:19:01.257Z,99590.28
2018-03-29T11:21:28.851Z,99586.48
2018-03-29T11:23:56.485Z,99588.66
2018-03-29T11:26:24.070Z,99588.58
2018-03-29T11:28:51.669Z,99588.08
2018-03-29T11:31:19.282Z,99586.66
2018-03-29T11:33:46.876Z,99585.95
2018-03-29T11:36:14.438Z,99581.48
2018-03-29T11:38:42.090Z,99582.89
2018-03-29T11:41:09.675Z,99569.17
2018-03-29T11:43:37.257Z,99570.61
2018-03-29T11:46:04.871Z,99554.73
2018-03-29T11:48:32.450Z,99551.25
2018-03-29T11:51:00.021Z,99552.80
2018-03-29T11:53:27.632Z,99552.38
2018-03-29T11:55:55.215Z,99549.79
2018-03-29T11:58:22.801Z,99543.81
2018-03-29T12:00:50.480Z,99528.30
2018-03-29T12:03:18.062Z,99530.48
2018-03-29T12:05:45.639Z,99537.55
2018-03-29T12:08:13.283Z,99534.76
2018-03-29T12:10:40.876Z,99533.75
2018-03-29T12:13:08.480Z,99531.39
2018-03-29T12:15:36.146Z,99527.72
2018-03-29T12:18:03.723Z,99520.23
2018-03-29T12:20:31.314Z,99517.35
2018-03-29T12:22:59.054Z,99523.33
2018-03-29T12:25:26.643Z,99518.27
2018-03-29T12:27:54.233Z,99516.41
2018-03-29T12:30:21.859Z,99508.39
2018-03-29T12:32:49.479Z,99520.57
2018-03-29T12:35:17.041Z,99508.97
2018-03-29T12:37:44.663Z,99515.83
2018-03-29T12:40:12.238Z,99506.73
2018-03-29T12:42:39.817Z,99509.92
2018-03-29T12:45:07.481Z,99510.55
2018-03-29T12:47:35.056Z,99511.02
2018-03-29T12:50:02.638Z,99495.63
2018-03-29T12:52:30.272Z,99505.30
2018-03-29T12:55:09.578Z,99498.87
2018-03-29T13:00:45.995Z,99491.30
2018-03-29T13:03:13.614Z,99494.78
2018-03-29T13:05:41.199Z,99493.22
2018-03-29T13:08:08.773Z,99493.55
2018-03-29T13:10:36.385Z,99493.64
2018-03-29T13:13:03.977Z,99491.00
2018-03-29T13:15:31.604Z,99486.51
2018-03-29T13:17:59.208Z,99485.33
2018-03-29T13:20:26.810Z,99480.61
2018-03-29T13:22:54.434Z,99479.20
2018-03-29T13:25:22.066Z,99489.21
2018-03-29T13:27:49.690Z,99492.19
2018-03-29T13:30:17.310Z,99493.81
2018-03-29T13:32:45.001Z,99494.15
2018-03-29T13:35:12.656Z,99497.86
2018-03-29T13:37:40.262Z,99497.73
2018-03-29T13:40:07.881Z,99498.87
2018-03-29T13:42:35.458Z,99491.64
2018-03-29T13:45:03.058Z,99494.94
2018-03-29T13:47:30.677Z,99488.26
2018-03-29T13:49:58.269Z,99490.47
2018-03-29T13:52:25.908Z,99490.98
2018-03-29T13:54:53.538Z,99484.56
2018-03-29T13:57:21.127Z,99484.13
2018-03-29T13:59:48.737Z,99486.97
2018-03-29T14:02:16.360Z,99488.83
2018-03-29T14:04:43.938Z,99480.81
2018-03-29T14:07:11.542Z,99480.14
2018-03-29T14:09:39.149Z,99490.30
2018-03-29T14:12:06.769Z,99488.01
2018-03-29T14:14:34.428Z,99482.91
2018-03-29T14:17:02.071Z,99486.07
2018-03-29T14:19:29.659Z,99480.20
2018-03-29T14:21:57.228Z,99489.44
2018-03-29T14:24:24.855Z,99487.24
2018-03-29T14:26:53.848Z,99483.66
2018-03-29T14:29:21.441Z,99487.43
2018-03-29T14:31:49.054Z,99483.80
2018-03-29T14:34:16.634Z,99476.75
2018-03-29T14:36:44.228Z,99479.43
2018-03-29T14:39:11.878Z,99475.47
2018-03-29T14:41:39.501Z,99476.99
2018-03-29T14:44:07.172Z,99478.14
2018-03-29T14:46:34.773Z,99479.36
2018-03-29T14:49:02.376Z,99487.02
2018-03-29T14:51:29.977Z,99490.09
2018-03-29T14:53:57.589Z,99484.31
2018-03-29T14:56:25.196Z,99484.70
2018-03-29T14:58:52.781Z,99485.14
2018-03-29T15:01:20.404Z,99486.72
2018-03-29T15:03:47.996Z,99488.55
2018-03-29T15:06:15.596Z,99491.39
2018-03-29T15:08:43.218Z,99489.09
2018-03-29T15:11:10.813Z,99490.27
2018-03-29T15:13:38.574Z,99495.34
2018-03-29T15:16:06.156Z,99500.80
2018-03-29T15:18:33.727Z,99495.27
2018-03-29T15:21:01.324Z,99494.44
2018-03-29T15:23:28.919Z,99498.31
2018-03-29T15:25:56.496Z,99501.80
2018-03-29T15:28:24.082Z,99490.12
2018-03-29T15:30:51.695Z,99503.09
2018-03-29T15:33:19.280Z,99507.86
2018-03-29T15:35:46.866Z,99504.31
2018-03-29T15:38:14.485Z,99508.82
2018-03-29T15:40:42.095Z,99507.08
2018-03-29T15:43:09.683Z,99512.55
2018-03-29T15:45:37.302Z,99515.42
2018-03-29T15:48:04.891Z,99515.63
2018-03-29T15:50:32.473Z,99522.52
2018-03-29T15:53:00.115Z,99522.45
2018-03-29T15:55:27.712Z,99525.02
2018-03-29T15:57:55.312Z,99520.36
2018-03-29T16:00:22.934Z,99513.08
2018-03-29T16:02:50.907Z,99522.48
2018-03-29T16:05:18.514Z,99524.62
2018-03-29T16:07:46.155Z,99528.70
2018-03-29T16:10:13.754Z,99533.98
2018-03-29T16:12:41.383Z,99527.64
2018-03-29T16:15:08.978Z,99529.20
2018-03-29T16:17:36.568Z,99526.17
2018-03-29T16:20:04.166Z,99531.97
2018-03-29T16:22:31.784Z,99528.01
2018-03-29T16:24:59.376Z,99536.01
2018-03-29T16:27:27.013Z,99540.45
2018-03-29T16:29:54.650Z,99537.13
2018-03-29T16:32:22.274Z,99543.35
2018-03-29T16:34:49.864Z,99548.42
2018-03-29T16:37:17.495Z,99545.20
2018-03-29T16:39:45.106Z,99544.80
2018-03-29T16:42:12.729Z,99541.30
2018-03-29T16:44:40.351Z,99545.11
2018-03-29T16:47:07.977Z,99538.73
2018-03-29T16:49:35.565Z,99542.76
2018-03-29T16:52:03.181Z,99544.56
2018-03-29T16:54:30.779Z,99546.38
2018-03-29T16:56:58.375Z,99547.56
2018-03-29T16:59:26.063Z,99552.25
2018-03-29T17:01:53.647Z,99556.54
2018-03-29T17:04:21.238Z,99553.95
2018-03-29T17:06:48.874Z,99558.18
2018-03-29T17:09:16.489Z,99561.50
2018-03-29T17:11:44.074Z,99565.12
2018-03-29T17:14:11.707Z,99569.40
2018-03-29T17:16:39.288Z,99570.34
2018-03-29T17:19:06.879Z,99580.46
2018-03-29T17:21:34.541Z,99579.78
2018-03-29T17:24:02.123Z,99580.05
2018-03-29T17:26:29.727Z,99589.89
2018-03-29T17:28:57.383Z,99598.86
2018-03-29T17:31:24.972Z,99594.08
2018-03-29T17:33:52.565Z,99596.31
2018-03-29T17:36:20.173Z,99605.47
2018-03-29T17:38:47.769Z,99599.82
2018-03-29T17:41:15.428Z,99604.48
2018-03-29T17:43:43.056Z,99610.39
2018-03-29T17:46:10.634Z,99610.73
2018-03-29T17:48:38.222Z,99616.80
2018-03-29T17:51:05.853Z,99616.34
2018-03-29T17:53:33.435Z,99619.81
2018-03-29T17:56:01.016Z,99626.33
2018-03-29T17:58:28.644Z,99628.08
2018-03-29T18:00:56.294Z,99620.90
2018-03-29T18:03:23.878Z,99626.08
2018-03-29T18:05:51.508Z,99629.47
2018-03-29T18:08:19.090Z,99633.53
2018-03-29T18:10:46.656Z,99628.19
2018-03-29T18:13:14.274Z,99621.91
2018-03-29T18:15:41.846Z,99626.84
2018-03-29T18:18:09.431Z,99626.13
2018-03-29T18:20:37.035Z,99632.31
2018-03-29T18:23:04.611Z,99641.47
2018-03-29T18:25:32.189Z,99630.68
2018-03-29T18:27:59.863Z,99638.28
2018-03-29T18:30:27.427Z,99628.97
2018-03-29T18:32:55.027Z,99639.12
2018-03-29T18:35:22.715Z,99645.59
2018-03-29T18:37:50.311Z,99643.92
2018-03-29T18:40:17.878Z,99634.98
2018-03-29T18:42:45.483Z,99636.50
2018-03-29T18:45:13.109Z,99633.53
2018-03-29T18:47:40.701Z,99637.50
2018-03-29T18:50:08.315Z,99648.78
2018-03-29T18:52:35.947Z,99653.20
2018-03-29T18:55:03.522Z,99656.48
2018-03-29T18:57:31.141Z,99663.04
2018-03-29T18:59:58.751Z,99665.07
2018-03-29T19:02:26.337Z,99669.66
2018-03-29T19:04:53.942Z,99674.92
2018-03-29T19:07:21.514Z,99668.44
2018-03-29T19:09:49.092Z,99671.90
2018-03-29T19:12:16.720Z,99676.08
2018-03-29T19:14:44.300Z,99671.64
2018-03-29T19:17:11.882Z,99669.45
2018-03-29T19:19:39.516Z,99675.54
2018-03-29T19:22:07.094Z,99666.79
2018-03-29T19:24:34.680Z,99678.79
2018-03-29T19:27:02.312Z,99675.58
2018-03-29T19:29:29.906Z,99678.04
2018-03-29T19:31:57.506Z,99686.00
2018-03-29T19:34:25.125Z,99689.70
2018-03-29T19:36:52.708Z,99683.61
2018-03-29T19:39:20.287Z,99686.45
2018-03-29T19:41:47.914Z,99683.42
2018-03-29T19:44:15.506Z,99692.05
2018-03-29T19:46:43.100Z,99694.36
2018-03-29T19:49:10.738Z,99696.61
2018-03-29T19:51:38.319Z,99695.91
2018-03-29T19:54:05.882Z,99698.78
2018-03-29T19:56:33.494Z,99695.75
2018-03-29T19:59:01.061Z,99696.67
2018-03-29T20:01:28.645Z,99690.83
2018-03-29T20:03:56.294Z,99691.45
2018-03-29T20:06:23.876Z,99694.05
2018-03-29T20:08:51.475Z,99695.91
2018-03-29T20:11:19.125Z,99696.20
2018-03-29T20:13:46.715Z,99697.96
2018-03-29T20:16:14.984Z,99698.27
2018-03-29T20:18:44.128Z,99699.13
2018-03-29T20:21:14.247Z,99699.59
2018-03-29T20:23:43.731Z,99704.09
2018-03-29T20:26:13.675Z,99711.21
2018-03-29T20:28:41.646Z,99712.14
2018-03-29T20:31:12.461Z,99711.02
2018-03-29T20:33:40.324Z,99707.83
2018-03-29T20:36:07.906Z,99711.27
2018-03-29T20:38:35.669Z,99714.23
2018-03-29T20:41:03.299Z,99714.77
2018-03-29T20:43:30.881Z,99716.52
2018-03-29T20:45:58.478Z,99714.41
2018-03-29T20:48:26.089Z,99716.80
2018-03-29T20:50:53.679Z,99716.38
2018-03-29T20:53:21.268Z,99713.72
2018-03-29T20:55:48.972Z,99721.98
2018-03-29T20:58:16.550Z,99721.24
2018-03-29T21:00:44.142Z,99719.98
2018-03-29T21:03:11.760Z,99720.88
2018-03-29T21:05:39.350Z,99718.96
2018-03-29T21:08:06.935Z,99709.46
2018-03-29T21:10:34.567Z,99711.75
2018-03-29T21:13:02.154Z,99700.62
2018-03-29T21:15:29.738Z,99707.53
2018-03-29T21:17:57.365Z,99706.84
2018-03-29T21:20:24.950Z,99699.63
2018-03-29T21:22:52.517Z,99700.72
2018-03-29T21:25:20.146Z,99696.64
2018-03-29T21:27:47.719Z,99695.44
2018-03-29T21:30:15.310Z,99683.40
2018-03-29T21:32:42.944Z,99681.97
2018-03-29T21:35:10.593Z,99688.84
2018-03-29T21:37:38.183Z,99680.61
2018-03-29T21:40:05.816Z,99680.74
2018-03-29T21:42:33.414Z,99676.19
2018-03-29T21:45:01.035Z,99678.53
2018-03-29T21:47:28.797Z,99679.34
2018-03-29T21:49:56.358Z,99678.80
2018-03-29T21:52:23.951Z,99683.85
2018-03-29T21:54:51.628Z,99679.05
2018-03-29T21:57:19.214Z,99676.66
2018-03-29T21:59:46.797Z,99673.16
2018-03-29T22:02:14.413Z,99677.91
2018-03-29T22:04:42.023Z,99672.81
2018-03-29T22:07:09.642Z,99678.61
2018-03-29T22:09:37.272Z,99681.81
2018-03-29T22:12:04.871Z,99675.98
2018-03-29T22:14:32.467Z,99682.48
2018-03-29T22:17:00.112Z,99686.45
2018-03-29T22:19:27.717Z,99686.94
2018-03-29T22:21:55.313Z,99685.95
2018-03-29T22:24:22.935Z,99682.86
2018-03-29T22:26:50.535Z,99690.23
2018-03-29T22:29:18.134Z,99688.33
2018-03-29T22:31:45.761Z,99693.17
2018-03-29T22:34:13.406Z,99692.30
2018-03-29T22:36:41.018Z,99690.91
2018-03-29T22:39:08.763Z,99694.91
2018-03-29T22:41:36.347Z,99697.56
2018-03-29T22:44:03.948Z,99690.45
2018-03-29T22:46:31.571Z,99695.41
2018-03-29T22:48:59.196Z,99691.73
2018-03-29T22:51:26.785Z,99690.55
2018-03-29T22:53:54.460Z,99697.48
2018-03-29T22:56:22.050Z,99700.64
2018-03-29T22:58:49.640Z,99697.09
2018-03-29T23:01:17.267Z,99702.34
2018-03-29T23:03:44.851Z,99701.48
2018-03-29T23:06:12.443Z,99702.81
2018-03-29T23:08:40.076Z,99702.22
2018-03-29T23:11:07.662Z,99699.53
2018-03-29T23:13:35.254Z,99697.92
2018-03-29T23:16:02.898Z,99689.03
2018-03-29T23:18:30.492Z,99697.41
2018-03-29T23:20:58.089Z,99690.55
2018-03-29T23:23:25.718Z,99686.69
2018-03-29T23:25:53.291Z,99688.81
2018-03-29T23:28:20.883Z,99685.86
2018-03-29T23:30:48.548Z,99684.30
2018-03-29T23:33:16.133Z,99680.84
2018-03-29T23:35:43.740Z,99678.66
2018-03-29T23:38:11.372Z,99679.38
2018-03-29T23:40:38.987Z,99686.22
2018-03-29T23:43:06.607Z,99682.09
2018-03-29T23:45:34.271Z,99679.70
2018-03-29T23:48:01.918Z,99686.27
2018-03-29T23:50:29.521Z,99677.22
2018-03-29T23:52:57.183Z,99686.16
2018-03-29T23:55:24.820Z,99687.59
2018-03-29T23:58:04.322Z,99690.08
